createdAt,value
2022-10-26T00:00:26.091Z,0.00
2022-10-26T00:15:26.099Z,0.00
2022-10-26T00:30:26.013Z,0.00
2022-10-26T00:45:26.026Z,0.00
2022-10-26T01:00:26.027Z,0.02
2022-10-26T01:15:26.143Z,0.00
2022-10-26T01:30:26.197Z,0.29
2022-10-26T01:45:26.211Z,0.03
2022-10-26T02:00:26.175Z,0.03
2022-10-26T02:15:26.158Z,0.03
2022-10-26T02:30:26.254Z,0.07
2022-10-26T02:45:26.191Z,0.04
2022-10-26T03:00:26.281Z,0.45
2022-10-26T03:15:26.288Z,0.50
2022-10-26T03:30:26.254Z,0.61
2022-10-26T03:45:26.270Z,0.13
2022-10-26T04:00:26.346Z,0.00
2022-10-26T04:15:26.149Z,0.58
2022-10-26T04:30:26.247Z,1.31
2022-10-26T04:45:26.345Z,1.17
2022-10-26T05:00:26.411Z,2.03
2022-10-26T05:15:26.305Z,1.88
2022-10-26T05:30:26.292Z,1.92
2022-10-26T05:45:26.278Z,2.19
2022-10-26T06:00:26.210Z,1.88
2022-10-26T06:15:26.304Z,1.94
2022-10-26T06:30:26.307Z,1.87
2022-10-26T06:45:26.387Z,0.95
2022-10-26T07:00:26.613Z,0.98
2022-10-26T07:15:26.347Z,1.70
2022-10-26T07:30:26.458Z,2.30
2022-10-26T07:45:26.517Z,1.99
2022-10-26T08:00:26.655Z,1.75
2022-10-26T08:15:26.501Z,2.01
2022-10-26T08:30:26.545Z,2.13
2022-10-26T08:45:31.680Z,2.38
2022-10-26T09:00:26.571Z,3.22
2022-10-26T09:15:26.525Z,2.23
2022-10-26T09:30:26.526Z,2.26
2022-10-26T09:45:26.670Z,2.16
2022-10-26T10:00:26.745Z,1.92
2022-10-26T10:15:26.626Z,2.31
2022-10-26T10:30:26.617Z,2.42
2022-10-26T10:45:26.581Z,2.39
2022-10-26T11:00:26.660Z,3.00
2022-10-26T11:15:26.660Z,2.70
2022-10-26T11:30:26.712Z,2.95
2022-10-26T11:45:26.767Z,2.59
2022-10-26T12:00:26.945Z,3.57
2022-10-26T12:15:35.213Z,3.15
2022-10-26T12:30:26.915Z,3.10
2022-10-26T12:45:26.931Z,3.66
2022-10-26T13:00:27.048Z,3.13
2022-10-26T13:15:27.004Z,3.48
2022-10-26T13:30:27.045Z,3.21
2022-10-26T13:45:27.209Z,3.18
2022-10-26T14:00:27.010Z,2.97
2022-10-26T14:15:27.059Z,2.45
2022-10-26T14:30:26.974Z,2.40
2022-10-26T14:45:36.490Z,2.63
2022-10-26T15:00:27.024Z,2.78
2022-10-26T15:15:27.102Z,0.94
2022-10-26T15:30:27.225Z,1.04
2022-10-26T15:45:27.187Z,0.81
2022-10-26T16:00:27.080Z,0.79
2022-10-26T16:15:27.108Z,0.71
2022-10-26T16:30:30.441Z,0.75
2022-10-26T16:45:27.141Z,0.75
2022-10-26T17:00:27.404Z,0.43
2022-10-26T17:15:28.880Z,0.49
2022-10-26T17:30:29.412Z,0.74
2022-10-26T17:45:27.439Z,1.45
2022-10-26T18:00:27.574Z,0.48
2022-10-26T18:15:27.578Z,0.30
2022-10-26T18:30:27.614Z,0.37
2022-10-26T18:45:27.714Z,0.25
2022-10-26T19:00:27.741Z,0.21
2022-10-26T19:15:27.583Z,0.21
2022-10-26T19:30:27.770Z,0.08
2022-10-26T19:45:27.872Z,0.00
2022-10-26T20:00:27.682Z,0.00
2022-10-26T20:15:27.739Z,0.42
2022-10-26T20:30:27.791Z,0.34
2022-10-26T20:45:27.915Z,0.46
2022-10-26T21:00:27.991Z,0.56
2022-10-26T21:15:27.886Z,0.19
2022-10-26T21:30:29.001Z,0.46
2022-10-26T21:45:27.838Z,0.20
2022-10-26T22:00:28.018Z,0.52
2022-10-26T22:15:28.017Z,0.59
2022-10-26T22:30:27.812Z,0.94
2022-10-26T22:45:27.971Z,0.96
2022-10-26T23:00:27.959Z,0.67
2022-10-26T23:15:27.985Z,0.80
2022-10-26T23:30:28.024Z,0.39
2022-10-26T23:45:28.003Z,0.66
